createdAt,value
2023-01-10T00:00:39.813Z,21.00
2023-01-10T00:03:09.677Z,21.00
2023-01-10T00:05:38.423Z,21.00
2023-01-10T00:08:07.007Z,21.10
2023-01-10T00:10:34.242Z,21.00
2023-01-10T00:13:19.672Z,21.00
2023-01-10T00:15:46.668Z,21.00
2023-01-10T00:18:15.629Z,21.00
2023-01-10T00:20:44.632Z,21.00
2023-01-10T00:23:11.657Z,21.00
2023-01-10T00:25:38.756Z,21.00
2023-01-10T00:28:19.675Z,21.10
2023-01-10T00:30:55.035Z,21.00
2023-01-10T00:33:22.254Z,21.00
2023-01-10T00:35:49.146Z,21.00
2023-01-10T00:38:16.090Z,21.00
2023-01-10T00:40:43.338Z,21.00
2023-01-10T00:43:29.651Z,21.00
2023-01-10T00:45:58.027Z,20.90
2023-01-10T00:48:25.079Z,20.90
2023-01-10T00:50:52.137Z,20.90
2023-01-10T00:53:18.888Z,20.90
2023-01-10T00:55:46.169Z,21.00
2023-01-10T00:58:16.713Z,21.00
2023-01-10T01:00:46.926Z,20.90
2023-01-10T01:03:14.367Z,21.00
2023-01-10T01:05:46.176Z,20.90
2023-01-10T01:08:16.834Z,21.00
2023-01-10T01:10:43.904Z,21.00
2023-01-10T01:13:19.776Z,20.90
2023-01-10T01:15:47.336Z,20.90
2023-01-10T01:18:16.281Z,21.00
2023-01-10T01:20:45.749Z,20.90
2023-01-10T01:23:13.469Z,20.90
2023-01-10T01:25:40.311Z,20.90
2023-01-10T01:28:08.101Z,21.00
2023-01-10T01:30:34.862Z,20.90
2023-01-10T01:33:04.334Z,21.00
2023-01-10T01:35:33.332Z,21.00
2023-01-10T01:38:00.356Z,20.90
2023-01-10T01:40:27.148Z,21.00
2023-01-10T01:42:55.923Z,21.00
2023-01-10T01:45:22.731Z,20.90
2023-01-10T01:47:56.257Z,21.00
2023-01-10T01:50:44.056Z,21.00
2023-01-10T01:53:23.173Z,21.00
2023-01-10T01:55:53.601Z,21.00
2023-01-10T01:58:27.175Z,21.00
2023-01-10T02:00:53.953Z,21.00
2023-01-10T02:03:20.790Z,21.00
2023-01-10T02:05:47.805Z,21.00
2023-01-10T02:08:14.598Z,21.00
2023-01-10T02:10:52.326Z,21.00
2023-01-10T02:13:23.966Z,21.00
2023-01-10T02:15:51.075Z,21.00
2023-01-10T02:18:18.907Z,21.00
2023-01-10T02:21:13.170Z,21.00
2023-01-10T02:24:29.097Z,21.00
2023-01-10T02:27:21.038Z,21.00
2023-01-10T02:29:56.841Z,21.00
2023-01-10T02:32:50.597Z,21.00
2023-01-10T02:35:51.840Z,21.00
2023-01-10T02:38:52.250Z,21.00
2023-01-10T02:41:28.265Z,21.00
2023-01-10T02:44:08.108Z,21.00
2023-01-10T02:46:39.067Z,21.00
2023-01-10T02:49:06.836Z,21.00
2023-01-10T02:51:33.679Z,21.00
2023-01-10T02:54:08.182Z,21.00
2023-01-10T02:57:06.136Z,21.00
2023-01-10T02:59:47.990Z,21.00
2023-01-10T03:02:48.164Z,21.00
2023-01-10T03:05:39.982Z,21.00
2023-01-10T03:08:24.048Z,21.00
2023-01-10T03:11:06.803Z,21.00
2023-01-10T03:13:48.630Z,21.00
2023-01-10T03:16:24.806Z,21.00
2023-01-10T03:19:01.687Z,21.00
2023-01-10T03:21:30.922Z,21.00
2023-01-10T03:24:03.678Z,21.00
2023-01-10T03:26:39.185Z,21.00
2023-01-10T03:29:10.385Z,21.00
2023-01-10T03:31:51.942Z,21.00
2023-01-10T03:34:19.227Z,21.00
2023-01-10T03:37:04.817Z,21.00
2023-01-10T03:39:44.554Z,21.00
2023-01-10T03:42:15.729Z,21.00
2023-01-10T03:45:03.866Z,21.00
2023-01-10T03:47:51.040Z,21.00
2023-01-10T03:50:26.630Z,21.00
2023-01-10T03:52:53.493Z,20.90
2023-01-10T03:55:28.138Z,20.90
2023-01-10T03:57:55.281Z,20.90
2023-01-10T04:00:22.289Z,20.90
2023-01-10T04:02:49.091Z,20.90
2023-01-10T04:05:16.009Z,20.90
2023-01-10T04:07:42.748Z,20.90
2023-01-10T04:10:10.293Z,20.90
2023-01-10T04:12:37.078Z,20.90
2023-01-10T04:15:05.074Z,20.90
2023-01-10T04:17:31.898Z,20.90
2023-01-10T04:19:58.669Z,20.90
2023-01-10T04:22:25.416Z,20.90
2023-01-10T04:24:52.270Z,20.90
2023-01-10T04:27:19.268Z,20.90
2023-01-10T04:29:46.721Z,20.90
2023-01-10T04:32:13.673Z,20.90
2023-01-10T04:34:40.443Z,20.90
2023-01-10T04:37:07.365Z,20.90
2023-01-10T04:39:34.188Z,20.90
2023-01-10T04:42:00.972Z,20.90
2023-01-10T04:44:27.720Z,20.90
2023-01-10T04:46:54.486Z,20.90
2023-01-10T04:49:23.595Z,20.90
2023-01-10T04:51:50.372Z,20.90
2023-01-10T04:54:21.296Z,20.90
2023-01-10T04:56:48.577Z,20.90
2023-01-10T04:59:15.783Z,20.80
2023-01-10T05:01:42.761Z,20.90
2023-01-10T05:04:10.080Z,20.80
2023-01-10T05:06:37.309Z,20.80
2023-01-10T05:09:04.173Z,20.80
2023-01-10T05:11:30.927Z,20.80
2023-01-10T05:13:57.711Z,20.80
2023-01-10T05:16:25.456Z,20.80
2023-01-10T05:18:52.345Z,20.80
2023-01-10T05:21:19.864Z,20.70
2023-01-10T05:23:49.190Z,20.80
2023-01-10T05:26:18.928Z,20.80
2023-01-10T05:28:46.675Z,20.70
2023-01-10T05:31:16.398Z,20.80
2023-01-10T05:33:48.467Z,20.80
2023-01-10T05:36:15.873Z,20.80
2023-01-10T05:38:43.355Z,20.80
2023-01-10T05:41:10.785Z,20.90
2023-01-10T05:43:37.666Z,20.90
2023-01-10T05:46:04.637Z,20.90
2023-01-10T05:48:31.937Z,20.90
2023-01-10T05:50:59.325Z,20.90
2023-01-10T05:53:27.226Z,20.90
2023-01-10T05:55:59.217Z,20.90
2023-01-10T05:58:26.591Z,20.90
2023-01-10T06:00:54.945Z,20.90
2023-01-10T06:03:21.775Z,20.90
2023-01-10T06:05:49.172Z,20.90
2023-01-10T06:08:16.537Z,20.90
2023-01-10T06:10:43.623Z,20.90
2023-01-10T06:13:12.112Z,20.90
2023-01-10T06:15:39.378Z,20.90
2023-01-10T06:18:06.847Z,20.90
2023-01-10T06:20:33.736Z,20.90
2023-01-10T06:23:02.244Z,20.90
2023-01-10T06:25:29.392Z,20.90
2023-01-10T06:27:56.367Z,20.90
2023-01-10T06:30:25.599Z,20.80
2023-01-10T06:32:52.418Z,20.90
2023-01-10T06:35:19.231Z,20.90
2023-01-10T06:37:46.554Z,20.80
2023-01-10T06:40:13.417Z,20.80
2023-01-10T06:42:41.305Z,20.90
2023-01-10T06:45:08.745Z,20.90
2023-01-10T06:47:35.790Z,20.80
2023-01-10T06:50:03.286Z,20.80
2023-01-10T06:52:30.571Z,20.80
2023-01-10T06:54:57.549Z,20.80
2023-01-10T06:57:24.351Z,20.80
2023-01-10T06:59:51.987Z,20.80
2023-01-10T07:02:18.882Z,20.80
2023-01-10T07:04:46.220Z,20.80
2023-01-10T07:07:13.462Z,20.80
2023-01-10T07:09:40.757Z,20.80
2023-01-10T07:12:07.558Z,20.80
2023-01-10T07:14:34.886Z,20.80
2023-01-10T07:17:01.634Z,20.80
2023-01-10T07:19:28.400Z,20.80
2023-01-10T07:21:55.146Z,20.80
2023-01-10T07:24:22.435Z,20.80
2023-01-10T07:26:49.172Z,20.80
2023-01-10T07:29:15.925Z,20.80
2023-01-10T07:31:43.343Z,20.80
2023-01-10T07:34:10.115Z,20.80
2023-01-10T07:36:39.302Z,20.80
2023-01-10T07:39:06.300Z,20.80
2023-01-10T07:41:33.084Z,20.80
2023-01-10T07:43:59.911Z,20.80
2023-01-10T07:46:26.747Z,20.80
2023-01-10T07:54:58.560Z,20.80
2023-01-10T08:00:00.733Z,20.90
2023-01-10T08:02:28.151Z,20.90
2023-01-10T08:04:55.497Z,20.90
2023-01-10T08:07:22.791Z,20.90
2023-01-10T08:09:50.053Z,20.90
2023-01-10T08:12:16.882Z,20.90
2023-01-10T08:14:43.685Z,20.90
2023-01-10T08:17:10.951Z,20.90
2023-01-10T08:19:38.216Z,20.90
2023-01-10T08:22:05.024Z,21.00
2023-01-10T08:24:32.361Z,21.00
2023-01-10T08:26:59.887Z,21.00
2023-01-10T08:29:26.854Z,21.00
2023-01-10T08:31:54.202Z,21.00
2023-01-10T08:34:21.094Z,21.10
2023-01-10T08:36:52.867Z,21.10
2023-01-10T08:39:22.405Z,21.10
2023-01-10T08:41:50.269Z,21.10
2023-01-10T08:44:17.580Z,21.10
2023-01-10T08:46:44.829Z,21.10
2023-01-10T08:49:11.968Z,21.20
2023-01-10T08:51:39.324Z,21.20
2023-01-10T08:54:06.393Z,21.20
2023-01-10T08:56:33.694Z,21.20
2023-01-10T08:59:02.607Z,21.30
2023-01-10T09:01:29.450Z,21.20
2023-01-10T09:03:56.425Z,21.30
2023-01-10T09:06:24.236Z,21.20
2023-01-10T09:08:51.705Z,21.30
2023-01-10T09:11:19.031Z,21.30
2023-01-10T09:13:50.353Z,21.30
2023-01-10T09:16:18.219Z,21.30
2023-01-10T09:18:45.139Z,21.20
2023-01-10T09:21:12.444Z,21.20
2023-01-10T09:23:40.481Z,21.20
2023-01-10T09:26:07.217Z,21.20
2023-01-10T09:28:34.125Z,21.20
2023-01-10T09:31:04.148Z,21.30
2023-01-10T09:33:45.295Z,21.20
2023-01-10T09:36:15.597Z,21.20
2023-01-10T09:38:43.295Z,21.30
2023-01-10T09:41:22.018Z,21.20
2023-01-10T09:44:00.341Z,21.20
2023-01-10T09:47:05.974Z,21.20
2023-01-10T09:49:56.585Z,21.20
2023-01-10T09:52:31.743Z,21.20
2023-01-10T09:55:16.773Z,21.20
2023-01-10T09:57:43.625Z,21.30
2023-01-10T10:00:19.782Z,21.20
2023-01-10T10:02:50.681Z,21.20
2023-01-10T10:05:26.754Z,21.20
2023-01-10T10:08:02.411Z,21.20
2023-01-10T10:10:40.449Z,21.20
2023-01-10T10:13:23.141Z,21.20
2023-01-10T10:16:22.356Z,21.20
2023-01-10T10:19:01.518Z,21.20
2023-01-10T10:21:53.345Z,21.30
2023-01-10T10:24:23.128Z,21.30
2023-01-10T10:26:59.694Z,21.30
2023-01-10T10:29:58.667Z,21.20
2023-01-10T10:32:41.023Z,21.30
2023-01-10T10:35:37.954Z,21.30
2023-01-10T10:38:23.152Z,21.30
2023-01-10T10:40:52.422Z,21.20
2023-01-10T10:43:27.841Z,21.20
2023-01-10T10:46:10.368Z,21.20
2023-01-10T10:48:42.284Z,21.30
2023-01-10T10:51:29.254Z,21.20
2023-01-10T10:53:58.014Z,21.30
2023-01-10T10:56:27.125Z,21.20
2023-01-10T10:58:59.304Z,21.30
2023-01-10T11:01:27.091Z,21.30
2023-01-10T11:04:22.657Z,21.20
2023-01-10T11:06:50.341Z,21.30
2023-01-10T11:09:43.158Z,21.30
2023-01-10T11:12:18.664Z,21.20
2023-01-10T11:14:49.085Z,21.20
2023-01-10T11:17:28.145Z,21.20
2023-01-10T11:19:56.751Z,21.30
2023-01-10T11:22:25.141Z,21.20
2023-01-10T11:24:56.525Z,21.20
2023-01-10T11:27:27.100Z,21.20
2023-01-10T11:30:08.782Z,21.20
2023-01-10T11:32:37.553Z,21.20
2023-01-10T11:35:20.871Z,21.20
2023-01-10T11:38:19.384Z,21.20
2023-01-10T11:40:55.823Z,21.20
2023-01-10T11:43:28.637Z,21.20
2023-01-10T11:46:17.478Z,21.20
2023-01-10T11:49:05.460Z,21.20
2023-01-10T11:51:37.273Z,21.20
2023-01-10T11:54:17.476Z,21.20
2023-01-10T11:56:55.565Z,21.20
2023-01-10T11:59:23.105Z,21.20
2023-01-10T12:02:11.475Z,21.30
2023-01-10T12:04:45.230Z,21.30
2023-01-10T12:07:12.420Z,21.20
2023-01-10T12:09:55.705Z,21.30
2023-01-10T12:12:28.927Z,21.30
2023-01-10T12:14:58.353Z,21.30
2023-01-10T12:17:33.905Z,21.30
2023-01-10T12:20:02.251Z,21.30
2023-01-10T12:22:32.156Z,21.30
2023-01-10T12:25:01.461Z,21.30
2023-01-10T12:27:32.371Z,21.20
2023-01-10T12:30:12.739Z,21.20
2023-01-10T12:32:47.869Z,21.20
2023-01-10T12:35:25.753Z,21.20
2023-01-10T12:38:11.322Z,21.20
2023-01-10T12:40:45.281Z,21.20
2023-01-10T12:43:43.281Z,21.20
2023-01-10T12:46:43.512Z,21.20
2023-01-10T12:49:31.855Z,21.20
2023-01-10T12:52:10.581Z,21.20
2023-01-10T12:54:37.443Z,21.20
2023-01-10T12:57:16.786Z,21.20
2023-01-10T12:59:45.567Z,21.30
2023-01-10T13:02:20.026Z,21.20
2023-01-10T13:04:57.685Z,21.20
2023-01-10T13:07:30.277Z,21.20
2023-01-10T13:09:57.233Z,21.20
2023-01-10T13:12:40.575Z,21.20
2023-01-10T13:15:24.138Z,21.20
2023-01-10T13:18:00.024Z,21.20
2023-01-10T13:20:35.599Z,21.20
2023-01-10T13:23:15.996Z,21.20
2023-01-10T13:25:55.235Z,21.20
2023-01-10T13:28:28.475Z,21.20
2023-01-10T13:31:01.110Z,21.20
2023-01-10T13:33:33.846Z,21.20
2023-01-10T13:36:31.745Z,21.20
2023-01-10T13:39:02.139Z,21.20
2023-01-10T13:42:29.391Z,21.20
2023-01-10T13:45:03.985Z,21.20
2023-01-10T13:47:40.290Z,21.20
2023-01-10T13:50:36.491Z,21.20
2023-01-10T13:53:07.966Z,21.20
2023-01-10T13:55:44.152Z,21.30
2023-01-10T13:58:13.894Z,21.30
2023-01-10T14:00:59.338Z,21.30
2023-01-10T14:03:41.521Z,21.20
2023-01-10T14:06:18.665Z,21.30
2023-01-10T14:09:14.144Z,21.20
2023-01-10T14:11:44.483Z,21.30
2023-01-10T14:14:23.804Z,21.30
2023-01-10T14:16:54.121Z,21.30
2023-01-10T14:19:33.733Z,21.30
2023-01-10T14:22:03.109Z,21.30
2023-01-10T14:24:43.353Z,21.20
2023-01-10T14:27:16.102Z,21.20
2023-01-10T14:29:57.896Z,21.20
2023-01-10T14:32:31.778Z,21.20
2023-01-10T14:35:03.229Z,21.20
2023-01-10T14:37:37.500Z,21.30
2023-01-10T14:40:14.894Z,21.30
2023-01-10T14:42:44.108Z,21.30
2023-01-10T14:45:43.836Z,21.30
2023-01-10T14:48:51.572Z,21.30
2023-01-10T14:51:23.544Z,21.30
2023-01-10T14:54:10.283Z,21.30
2023-01-10T14:56:40.382Z,21.30
2023-01-10T14:59:36.980Z,21.30
2023-01-10T15:02:18.590Z,21.30
2023-01-10T15:05:01.527Z,21.30
2023-01-10T15:07:28.963Z,21.30
2023-01-10T15:10:02.229Z,21.30
2023-01-10T15:12:32.824Z,21.30
2023-01-10T15:15:08.173Z,21.30
2023-01-10T15:17:37.121Z,21.30
2023-01-10T15:20:07.408Z,21.30
2023-01-10T15:22:35.942Z,21.30
2023-01-10T15:25:25.524Z,21.30
2023-01-10T15:27:53.486Z,21.40
2023-01-10T15:30:35.124Z,21.40
2023-01-10T15:33:06.346Z,21.40
2023-01-10T15:35:37.414Z,21.40
2023-01-10T15:38:12.682Z,21.40
2023-01-10T15:40:41.919Z,21.40
2023-01-10T15:43:30.038Z,21.40
2023-01-10T15:45:58.575Z,21.40
2023-01-10T15:48:39.813Z,21.40
2023-01-10T15:51:29.979Z,21.40
2023-01-10T15:54:06.520Z,21.40
2023-01-10T15:56:50.471Z,21.40
2023-01-10T15:59:28.408Z,21.40
2023-01-10T16:02:04.800Z,21.40
2023-01-10T16:04:39.137Z,21.50
2023-01-10T16:07:22.895Z,21.50
2023-01-10T16:10:19.557Z,21.50
2023-01-10T16:13:05.557Z,21.50
2023-01-10T16:15:41.375Z,21.50
2023-01-10T16:18:08.248Z,21.50
2023-01-10T16:20:45.969Z,21.60
2023-01-10T16:23:33.098Z,21.60
2023-01-10T16:26:04.655Z,21.60
2023-01-10T16:28:36.058Z,21.60
2023-01-10T16:31:07.191Z,21.60
2023-01-10T16:33:34.885Z,21.60
2023-01-10T16:36:02.277Z,21.60
2023-01-10T16:38:30.331Z,21.60
2023-01-10T16:40:58.965Z,21.60
2023-01-10T16:43:28.851Z,21.60
2023-01-10T16:46:00.085Z,21.70
2023-01-10T16:48:29.189Z,21.60
2023-01-10T16:51:17.929Z,21.70
2023-01-10T16:53:45.552Z,21.60
2023-01-10T16:56:24.390Z,21.60
2023-01-10T16:58:53.533Z,21.70
2023-01-10T17:01:25.460Z,21.70
2023-01-10T17:03:53.116Z,21.70
2023-01-10T17:06:20.403Z,21.70
2023-01-10T17:08:49.490Z,21.70
2023-01-10T17:11:30.858Z,21.70
2023-01-10T17:13:58.715Z,21.70
2023-01-10T17:16:25.681Z,21.70
2023-01-10T17:18:52.553Z,21.70
2023-01-10T17:21:22.015Z,21.70
2023-01-10T17:23:49.235Z,21.70
2023-01-10T17:26:18.623Z,21.70
2023-01-10T17:28:46.534Z,21.70
2023-01-10T17:31:13.352Z,21.70
2023-01-10T17:33:40.171Z,21.70
2023-01-10T17:36:07.329Z,21.70
2023-01-10T17:38:34.227Z,21.70
2023-01-10T17:41:04.123Z,21.70
2023-01-10T17:43:31.962Z,21.70
2023-01-10T17:45:59.091Z,21.70
2023-01-10T17:48:26.824Z,21.70
2023-01-10T17:50:59.848Z,21.70
2023-01-10T17:53:27.128Z,21.70
2023-01-10T17:55:54.212Z,21.70
2023-01-10T17:58:21.639Z,21.70
2023-01-10T18:00:49.122Z,21.70
2023-01-10T18:03:16.584Z,21.70
2023-01-10T18:05:55.147Z,21.70
2023-01-10T18:08:22.232Z,21.70
2023-01-10T18:10:49.533Z,21.70
2023-01-10T18:13:19.271Z,21.70
2023-01-10T18:15:48.659Z,21.70
2023-01-10T18:18:16.718Z,21.70
2023-01-10T18:20:44.672Z,21.70
2023-01-10T18:23:21.137Z,21.70
2023-01-10T18:26:00.185Z,21.70
2023-01-10T18:28:41.058Z,21.70
2023-01-10T18:31:16.137Z,21.70
2023-01-10T18:33:43.711Z,21.70
2023-01-10T18:36:19.492Z,21.70
2023-01-10T18:38:47.803Z,21.70
2023-01-10T18:41:16.335Z,21.70
2023-01-10T18:43:43.196Z,21.70
2023-01-10T18:46:13.384Z,21.70
2023-01-10T18:48:40.522Z,21.80
2023-01-10T18:51:09.978Z,21.80
2023-01-10T18:53:36.760Z,21.80
2023-01-10T18:56:05.348Z,21.80
2023-01-10T18:58:35.108Z,21.80
2023-01-10T19:01:09.851Z,21.80
2023-01-10T19:03:36.848Z,21.80
2023-01-10T19:06:06.786Z,21.80
2023-01-10T19:08:34.328Z,21.80
2023-01-10T19:11:13.039Z,21.80
2023-01-10T19:13:41.759Z,21.80
2023-01-10T19:16:14.743Z,21.80
2023-01-10T19:18:42.135Z,21.80
2023-01-10T19:21:15.096Z,21.80
2023-01-10T19:23:44.134Z,21.80
2023-01-10T19:26:12.171Z,21.80
2023-01-10T19:28:39.388Z,21.80
2023-01-10T19:31:06.791Z,21.80
2023-01-10T19:33:34.820Z,21.80
2023-01-10T19:36:07.893Z,21.80
2023-01-10T19:38:34.950Z,21.80
2023-01-10T19:41:02.112Z,21.70
2023-01-10T19:43:29.063Z,21.70
2023-01-10T19:45:56.438Z,21.70
2023-01-10T19:48:24.351Z,21.70
2023-01-10T19:50:51.252Z,21.70
2023-01-10T19:53:23.715Z,21.70
2023-01-10T19:55:59.511Z,21.70
2023-01-10T19:58:29.016Z,21.70
2023-01-10T20:00:55.827Z,21.70
2023-01-10T20:03:22.684Z,21.70
2023-01-10T20:05:49.988Z,21.70
2023-01-10T20:08:17.843Z,21.70
2023-01-10T20:10:45.336Z,21.70
2023-01-10T20:13:12.557Z,21.70
2023-01-10T20:15:40.043Z,21.70
2023-01-10T20:18:06.961Z,21.70
2023-01-10T20:20:33.900Z,21.70
2023-01-10T20:23:01.140Z,21.70
2023-01-10T20:25:28.901Z,21.60
2023-01-10T20:27:55.711Z,21.70
2023-01-10T20:30:22.548Z,21.70
2023-01-10T20:32:49.763Z,21.70
2023-01-10T20:35:18.075Z,21.70
2023-01-10T20:37:47.072Z,21.70
2023-01-10T20:40:15.316Z,21.70
2023-01-10T20:42:42.631Z,21.70
2023-01-10T20:45:09.538Z,21.70
2023-01-10T20:47:36.898Z,21.60
2023-01-10T20:50:04.414Z,21.70
2023-01-10T20:52:31.328Z,21.60
2023-01-10T20:54:58.600Z,21.60
2023-01-10T20:57:25.398Z,21.60
2023-01-10T20:59:52.627Z,21.60
2023-01-10T21:02:19.989Z,21.60
2023-01-10T21:04:49.718Z,21.60
2023-01-10T21:07:17.901Z,21.60
2023-01-10T21:09:45.162Z,21.60
2023-01-10T21:12:23.000Z,21.60
2023-01-10T21:14:51.036Z,21.60
2023-01-10T21:17:20.736Z,21.60
2023-01-10T21:19:47.552Z,21.60
2023-01-10T21:22:14.706Z,21.50
2023-01-10T21:24:42.948Z,21.50
2023-01-10T21:27:09.963Z,21.50
2023-01-10T21:29:37.252Z,21.50
2023-01-10T21:32:05.855Z,21.50
2023-01-10T21:34:33.164Z,21.50
2023-01-10T21:36:59.977Z,21.50
2023-01-10T21:39:27.238Z,21.50
2023-01-10T21:42:12.626Z,21.50
2023-01-10T21:44:40.332Z,21.50
2023-01-10T21:47:07.632Z,21.50
2023-01-10T21:49:34.885Z,21.50
2023-01-10T21:52:01.666Z,21.50
2023-01-10T21:54:28.505Z,21.50
2023-01-10T21:56:55.262Z,21.50
2023-01-10T21:59:22.099Z,21.50
2023-01-10T22:01:48.899Z,21.50
2023-01-10T22:04:17.322Z,21.50
2023-01-10T22:07:01.510Z,21.50
2023-01-10T22:09:29.250Z,21.50
2023-01-10T22:11:56.131Z,21.50
2023-01-10T22:14:23.031Z,21.50
2023-01-10T22:16:50.307Z,21.50
2023-01-10T22:19:17.563Z,21.40
2023-01-10T22:21:44.827Z,21.40
2023-01-10T22:24:12.025Z,21.40
2023-01-10T22:26:38.862Z,21.40
2023-01-10T22:29:05.795Z,21.40
2023-01-10T22:31:32.692Z,21.40
2023-01-10T22:34:00.018Z,21.40
2023-01-10T22:36:26.775Z,21.40
2023-01-10T22:38:53.706Z,21.40
2023-01-10T22:41:26.873Z,21.40
2023-01-10T22:43:54.788Z,21.40
2023-01-10T22:46:22.101Z,21.30
2023-01-10T22:48:49.753Z,21.30
2023-01-10T22:51:18.207Z,21.30
2023-01-10T22:53:50.165Z,21.30
2023-01-10T22:56:17.151Z,21.30
2023-01-10T22:58:47.965Z,21.30
2023-01-10T23:01:20.494Z,21.30
2023-01-10T23:03:47.782Z,21.20
2023-01-10T23:06:15.141Z,21.30
2023-01-10T23:08:42.879Z,21.30
2023-01-10T23:11:11.022Z,21.30
2023-01-10T23:13:37.697Z,21.20
2023-01-10T23:16:07.244Z,21.20
2023-01-10T23:18:37.822Z,21.20
2023-01-10T23:21:05.138Z,21.20
2023-01-10T23:23:32.145Z,21.20
2023-01-10T23:26:08.355Z,21.20
2023-01-10T23:28:36.533Z,21.20
2023-01-10T23:31:03.859Z,21.20
2023-01-10T23:33:31.610Z,21.20
2023-01-10T23:35:58.894Z,21.10
2023-01-10T23:38:26.262Z,21.20
2023-01-10T23:40:53.975Z,21.10
2023-01-10T23:43:23.728Z,21.10
2023-01-10T23:45:53.201Z,21.10
2023-01-10T23:48:20.973Z,21.10
2023-01-10T23:50:48.900Z,21.10
2023-01-10T23:53:16.262Z,21.10
2023-01-10T23:55:43.575Z,21.10
2023-01-10T23:58:10.973Z,21.10
